Time;durP1;ratioP1;P1;durP2;ratioP2;P2;SDS_P1;SDS_P2;PMS_P1;PMS_P2;Temp;Humidity;BMP_temperature;BMP_pressure;BME280_temperature;BME280_humidity;BME280_pressure;Samples;Min_cycle;Max_cycle;Signal;HPM_P1;HPM_P2
2024/03/25 00:00:12;;;;;;;5.15;1.95;;;;;;;5.12;100.00;99560.16;4970780;28;20133;-83
2024/03/25 00:02:39;;;;;;;4.93;1.50;;;;;;;5.08;100.00;99561.00;4948008;28;20038;-83
2024/03/25 00:05:09;;;;;;;3.75;1.10;;;;;;;5.12;100.00;99561.88;4968020;28;20045;-84
2024/03/25 00:07:36;;;;;;;1.70;1.58;;;;;;;5.11;100.00;99567.91;4977301;28;20053;-82
2024/03/25 00:10:02;;;;;;;4.80;1.42;;;;;;;5.05;100.00;99566.22;4973160;28;20041;-82
2024/03/25 00:12:29;;;;;;;4.05;1.33;;;;;;;5.03;100.00;99562.78;4970073;28;20061;-83
2024/03/25 00:14:55;;;;;;;1.77;1.05;;;;;;;5.01;100.00;99571.44;4980407;28;20561;-84
2024/03/25 00:17:21;;;;;;;15.25;2.80;;;;;;;4.99;100.00;99560.19;4969687;28;20070;-83
2024/03/25 00:19:50;;;;;;;4.20;0.90;;;;;;;4.95;100.00;99572.31;4970504;28;20046;-84
2024/03/25 00:22:19;;;;;;;5.35;2.53;;;;;;;4.90;100.00;99574.94;4976063;28;20050;-84
2024/03/25 00:24:46;;;;;;;3.15;1.33;;;;;;;4.91;100.00;99568.84;4980931;28;20038;-84
2024/03/25 00:27:12;;;;;;;3.40;1.90;;;;;;;4.83;100.00;99575.81;4957502;28;20382;-84
2024/03/25 00:29:38;;;;;;;7.65;2.72;;;;;;;4.88;100.00;99583.59;4971925;28;20068;-84
2024/03/25 00:32:06;;;;;;;6.20;1.48;;;;;;;4.92;100.00;99595.69;4965390;28;20129;-83
2024/03/25 00:34:32;;;;;;;3.45;1.48;;;;;;;4.94;100.00;99600.00;4978885;28;20109;-82
2024/03/25 00:37:02;;;;;;;5.53;1.63;;;;;;;5.03;100.00;99595.63;4965513;28;20133;-82
2024/03/25 00:39:29;;;;;;;4.65;1.83;;;;;;;5.05;100.00;99596.50;4959242;28;20069;-83
2024/03/25 00:41:55;;;;;;;1.95;1.70;;;;;;;5.05;100.00;99593.91;4959086;28;20575;-82
2024/03/25 00:44:26;;;;;;;6.35;1.85;;;;;;;5.05;100.00;99594.75;4963576;28;20129;-83
2024/03/25 00:46:52;;;;;;;6.82;1.50;;;;;;;5.06;100.00;99603.38;4970580;28;20046;-82
2024/03/25 00:49:18;;;;;;;4.75;1.58;;;;;;;5.05;100.00;99594.75;4978198;28;20042;-84
2024/03/25 00:51:44;;;;;;;1.48;1.10;;;;;;;5.11;100.00;99599.06;4967590;28;20125;-83
2024/03/25 00:54:10;;;;;;;7.85;4.45;;;;;;;5.13;100.00;99595.59;4960640;28;20105;-83
2024/03/25 00:56:36;;;;;;;4.15;1.48;;;;;;;5.12;100.00;99609.44;4972493;28;20157;-83
2024/03/25 00:59:02;;;;;;;3.60;1.92;;;;;;;5.10;100.00;99605.97;4968507;28;20050;-82
2024/03/25 01:01:35;;;;;;;2.28;1.63;;;;;;;5.10;100.00;99618.09;4969369;28;20046;-83
2024/03/25 01:04:02;;;;;;;6.40;1.77;;;;;;;5.09;100.00;99611.19;4972777;28;20074;-83
2024/03/25 01:06:28;;;;;;;5.53;2.08;;;;;;;5.09;100.00;99613.78;4981477;28;20037;-83
2024/03/25 01:08:54;;;;;;;8.80;3.08;;;;;;;5.05;100.00;99609.47;4970089;28;20046;-83
2024/03/25 01:11:21;;;;;;;13.18;2.22;;;;;;;5.08;100.00;99618.09;4971766;28;20047;-83
2024/03/25 01:13:50;;;;;;;4.60;1.50;;;;;;;5.01;100.00;99618.13;4975209;28;20082;-83
2024/03/25 01:16:17;;;;;;;4.35;1.83;;;;;;;5.02;100.00;99612.94;4967064;28;20069;-82
2024/03/25 01:18:42;;;;;;;7.93;2.30;;;;;;;5.04;100.00;99618.13;4976701;28;20106;-83
2024/03/25 01:21:09;;;;;;;8.60;1.67;;;;;;;5.06;100.00;99622.44;4970152;28;20062;-83
2024/03/25 01:23:35;;;;;;;5.78;2.33;;;;;;;5.05;100.00;99622.44;4971495;28;20038;-83
2024/03/25 01:26:06;;;;;;;7.68;1.95;;;;;;;5.03;100.00;99632.81;4973917;28;20445;-82
2024/03/25 01:28:32;;;;;;;7.60;2.53;;;;;;;5.01;100.00;99629.38;4964159;28;20047;-82
2024/03/25 01:31:01;;;;;;;9.73;1.67;;;;;;;5.04;100.00;99631.09;4956779;28;20061;-82
2024/03/25 01:33:26;;;;;;;12.18;2.38;;;;;;;5.09;100.00;99640.56;4969734;28;20095;-83
2024/03/25 01:35:55;;;;;;;4.95;1.95;;;;;;;5.04;100.00;99639.72;4959836;28;20465;-85
2024/03/25 01:38:22;;;;;;;6.05;2.20;;;;;;;5.10;100.00;99638.84;4967347;28;20092;-84
2024/03/25 01:40:48;;;;;;;4.07;1.98;;;;;;;5.09;100.00;99637.97;4953417;28;20054;-83
2024/03/25 01:43:14;;;;;;;10.57;2.40;;;;;;;5.10;100.00;99634.53;4966673;28;20047;-83
2024/03/25 01:45:41;;;;;;;4.03;1.42;;;;;;;5.09;100.00;99625.00;4990804;28;20043;-84
2024/03/25 01:48:09;;;;;;;7.93;1.98;;;;;;;5.12;100.00;99627.59;4977229;28;20038;-83
2024/03/25 01:50:46;;;;;;;6.72;1.83;;;;;;;5.05;100.00;99636.25;4977072;28;20108;-83
2024/03/25 01:53:13;;;;;;;9.10;1.52;;;;;;;5.02;100.00;99631.09;4972337;28;20038;-83
2024/03/25 01:55:40;;;;;;;7.13;1.70;;;;;;;5.03;100.00;99632.81;4957536;28;20054;-83
2024/03/25 01:58:06;;;;;;;10.02;1.83;;;;;;;4.96;100.00;99636.28;4959316;28;20096;-82
2024/03/25 02:00:33;;;;;;;5.75;1.67;;;;;;;4.93;100.00;99644.94;4942210;28;20457;-86
2024/03/25 02:02:59;;;;;;;9.10;2.15;;;;;;;4.90;100.00;99644.06;4984252;28;20066;-82
2024/03/25 02:05:25;;;;;;;6.22;2.10;;;;;;;4.89;100.00;99650.13;4973872;28;20073;-82
2024/03/25 02:07:52;;;;;;;7.85;2.13;;;;;;;4.88;100.00;99645.81;4955903;28;20538;-82
2024/03/25 02:10:18;;;;;;;6.18;2.05;;;;;;;4.84;100.00;99652.75;4960203;28;20050;-82
2024/03/25 02:12:46;;;;;;;6.43;2.22;;;;;;;4.83;100.00;99651.00;4983910;28;20062;-82
2024/03/25 02:15:13;;;;;;;7.47;2.13;;;;;;;4.79;100.00;99651.88;4971959;28;20078;-82
2024/03/25 02:17:42;;;;;;;7.65;2.55;;;;;;;4.74;100.00;99657.06;4974793;28;20078;-82
2024/03/25 02:20:09;;;;;;;8.05;1.92;;;;;;;4.68;100.00;99661.41;4970742;28;20517;-83
2024/03/25 02:22:36;;;;;;;10.48;2.00;;;;;;;4.66;100.00;99658.81;4974176;28;20136;-83
2024/03/25 02:25:08;;;;;;;6.75;1.88;;;;;;;4.72;100.00;99663.13;4972947;28;20046;-83
2024/03/25 02:27:34;;;;;;;15.02;2.08;;;;;;;4.71;100.00;99657.06;4957480;28;20046;-82
2024/03/25 02:30:10;;;;;;;7.68;3.05;;;;;;;4.73;100.00;99667.44;4954966;28;20105;-84
2024/03/25 02:32:36;;;;;;;9.30;2.22;;;;;;;4.68;100.00;99680.41;4961888;28;20060;-84
2024/03/25 02:35:16;;;;;;;4.78;2.10;;;;;;;4.67;100.00;99675.22;4973416;28;20054;-84
2024/03/25 02:37:42;;;;;;;3.65;1.70;;;;;;;4.66;100.00;99679.53;4962177;28;20185;-84
2024/03/25 02:40:11;;;;;;;6.50;2.10;;;;;;;4.71;100.00;99684.75;4975603;28;20514;-82
2024/03/25 02:42:37;;;;;;;4.10;1.90;;;;;;;4.70;100.00;99683.84;4968298;28;20087;-83
2024/03/25 02:45:04;;;;;;;6.32;1.70;;;;;;;4.62;100.00;99683.00;4954140;28;20046;-82
2024/03/25 02:47:30;;;;;;;4.68;2.03;;;;;;;4.55;100.00;99696.81;4979733;28;20050;-84
2024/03/25 02:49:58;;;;;;;4.88;1.85;;;;;;;4.43;100.00;99692.50;4960566;28;20501;-82
2024/03/25 02:52:23;;;;;;;6.65;1.75;;;;;;;4.40;100.00;99697.69;4959270;28;20046;-83
2024/03/25 02:54:51;;;;;;;7.35;1.52;;;;;;;4.40;100.00;99697.69;4974423;28;20057;-83
2024/03/25 02:57:16;;;;;;;2.42;0.98;;;;;;;4.45;100.00;99703.75;4980634;28;20038;-83
2024/03/25 02:59:46;;;;;;;13.07;2.72;;;;;;;4.49;100.00;99709.81;4974191;28;20138;-82
2024/03/25 03:02:12;;;;;;;5.63;1.80;;;;;;;4.46;100.00;99706.31;4976295;28;20046;-82
2024/03/25 03:04:38;;;;;;;4.22;1.67;;;;;;;4.43;100.00;99708.03;4957479;28;20057;-83
2024/03/25 03:07:04;;;;;;;8.68;2.10;;;;;;;4.45;100.00;99711.50;4976784;28;20046;-83
2024/03/25 03:09:31;;;;;;;5.03;1.58;;;;;;;4.53;100.00;99711.53;4959623;28;20410;-84
2024/03/25 03:11:57;;;;;;;7.80;2.03;;;;;;;4.56;100.00;99719.28;4973752;28;20049;-82
2024/03/25 03:14:23;;;;;;;3.75;1.85;;;;;;;4.58;100.00;99720.16;4959711;28;20677;-82
2024/03/25 03:16:49;;;;;;;6.45;1.98;;;;;;;4.55;100.00;99714.97;4973855;28;20077;-81
2024/03/25 03:19:16;;;;;;;3.35;1.73;;;;;;;4.54;100.00;99729.66;4987385;28;20066;-82
2024/03/25 03:21:41;;;;;;;3.95;1.70;;;;;;;4.53;100.00;99727.94;4977736;28;20165;-82
2024/03/25 03:24:08;;;;;;;5.65;2.20;;;;;;;4.57;100.00;99728.81;4974582;28;20153;-83
2024/03/25 03:26:33;;;;;;;6.05;1.63;;;;;;;4.58;100.00;99730.53;4969295;28;20046;-83
2024/03/25 03:29:00;;;;;;;6.38;1.80;;;;;;;4.63;100.00;99726.22;4967963;28;20390;-82
2024/03/25 03:31:26;;;;;;;7.30;1.50;;;;;;;4.65;100.00;99732.25;4975313;28;20045;-83
2024/03/25 03:33:53;;;;;;;6.70;1.67;;;;;;;4.67;100.00;99735.72;4968147;28;20046;-82
2024/03/25 03:36:21;;;;;;;2.33;1.58;;;;;;;4.70;100.00;99742.63;4978623;28;20038;-83
2024/03/25 03:38:48;;;;;;;4.25;1.45;;;;;;;4.71;100.00;99745.22;4964886;28;20062;-84
2024/03/25 03:41:17;;;;;;;3.72;1.70;;;;;;;4.73;100.00;99750.41;4983925;28;20045;-82
2024/03/25 03:43:44;;;;;;;5.07;1.77;;;;;;;4.74;100.00;99749.53;4978271;28;20039;-83
2024/03/25 03:46:09;;;;;;;7.47;1.40;;;;;;;4.77;100.00;99749.53;4976455;28;20111;-83
2024/03/25 03:48:38;;;;;;;3.53;1.17;;;;;;;4.76;100.00;99747.84;4987160;28;20042;-82
2024/03/25 03:51:04;;;;;;;2.58;1.88;;;;;;;4.76;100.00;99751.28;4983071;28;20046;-83
2024/03/25 03:53:31;;;;;;;3.35;1.73;;;;;;;4.71;100.00;99747.81;4976996;28;20446;-82
2024/03/25 03:55:59;;;;;;;5.72;1.73;;;;;;;4.67;100.00;99756.47;4972669;28;20050;-81
2024/03/25 03:58:26;;;;;;;6.25;1.40;;;;;;;4.64;100.00;99757.31;4961937;28;20053;-83
2024/03/25 04:00:52;;;;;;;3.53;1.20;;;;;;;4.59;100.00;99764.22;4961510;28;20050;-84
2024/03/25 04:03:21;;;;;;;4.60;1.65;;;;;;;4.54;100.00;99768.53;4963374;28;20053;-82
2024/03/25 04:05:47;;;;;;;7.40;1.75;;;;;;;4.50;100.00;99763.34;4980493;28;20126;-83
2024/03/25 04:08:14;;;;;;;4.38;1.38;;;;;;;4.42;100.00;99768.50;4976321;28;20145;-83
2024/03/25 04:10:40;;;;;;;6.50;1.63;;;;;;;4.33;100.00;99777.16;4970465;28;20042;-83
2024/03/25 04:13:08;;;;;;;2.85;1.52;;;;;;;4.29;100.00;99762.47;4959167;28;20073;-82
2024/03/25 04:15:35;;;;;;;5.95;1.70;;;;;;;4.25;100.00;99766.75;4974613;28;20141;-82
2024/03/25 04:18:02;;;;;;;5.47;1.80;;;;;;;4.18;100.00;99765.00;4974788;28;20082;-81
2024/03/25 04:20:28;;;;;;;6.90;1.85;;;;;;;4.14;100.00;99771.88;4979308;28;20464;-83
2024/03/25 04:22:54;;;;;;;10.45;2.35;;;;;;;4.12;100.00;99770.19;4980935;28;20046;-83
2024/03/25 04:25:20;;;;;;;5.88;2.22;;;;;;;4.11;100.00;99766.72;4974499;28;20025;-83
2024/03/25 04:27:47;;;;;;;6.05;1.83;;;;;;;4.12;100.00;99775.38;4969160;28;20047;-84
2024/03/25 04:30:13;;;;;;;2.95;1.85;;;;;;;4.16;100.00;99781.41;4962761;28;20096;-83
2024/03/25 04:32:40;;;;;;;6.43;2.42;;;;;;;4.21;100.00;99788.34;4963498;28;20046;-82
2024/03/25 04:35:07;;;;;;;10.02;1.70;;;;;;;4.29;100.00;99784.03;4959450;28;20404;-83
